createdAt,value
2023-05-22T00:00:08.709Z,99243.59
2023-05-22T00:02:42.920Z,99242.69
2023-05-22T00:05:11.460Z,99245.88
2023-05-22T00:07:39.072Z,99243.63
2023-05-22T00:10:06.882Z,99245.19
2023-05-22T00:12:33.580Z,99236.50
2023-05-22T00:15:00.554Z,99244.03
2023-05-22T00:17:27.471Z,99245.63
2023-05-22T00:19:55.205Z,99235.59
2023-05-22T00:22:21.929Z,99228.28
2023-05-22T00:24:48.533Z,99225.34
2023-05-22T00:27:15.154Z,99231.81
2023-05-22T00:29:41.834Z,99223.41
2023-05-22T00:32:08.452Z,99223.41
2023-05-22T00:34:35.155Z,99223.38
2023-05-22T00:37:01.787Z,99232.00
2023-05-22T00:39:28.398Z,99226.84
2023-05-22T00:41:55.109Z,99227.09
2023-05-22T00:44:21.851Z,99220.78
2023-05-22T00:46:48.542Z,99219.69
2023-05-22T00:49:15.272Z,99221.00
2023-05-22T00:51:41.983Z,99225.53
2023-05-22T00:54:09.014Z,99221.97
2023-05-22T00:56:35.633Z,99217.91
2023-05-22T00:59:02.304Z,99225.94
2023-05-22T01:01:33.669Z,99208.66
2023-05-22T01:04:02.022Z,99218.56
2023-05-22T01:06:32.158Z,99211.22
2023-05-22T01:08:59.098Z,99218.19
2023-05-22T01:11:31.342Z,99217.63
2023-05-22T01:14:10.823Z,99222.19
2023-05-22T01:16:48.905Z,99218.31
2023-05-22T01:19:47.999Z,99223.09
2023-05-22T01:22:28.306Z,99227.34
2023-05-22T01:25:37.159Z,99224.16
2023-05-22T01:28:27.461Z,99225.66
2023-05-22T01:31:11.130Z,99231.50
2023-05-22T01:33:49.421Z,99223.91
2023-05-22T01:36:20.335Z,99234.06
2023-05-22T01:38:47.438Z,99232.13
2023-05-22T01:41:14.290Z,99243.13
2023-05-22T01:43:41.816Z,99234.16
2023-05-22T01:46:08.729Z,99234.97
2023-05-22T01:48:36.181Z,99237.84
2023-05-22T01:51:09.137Z,99240.06
2023-05-22T01:53:43.624Z,99236.63
2023-05-22T01:56:15.057Z,99233.63
2023-05-22T01:58:45.736Z,99233.31
2023-05-22T02:01:14.439Z,99229.75
2023-05-22T02:03:41.971Z,99236.91
2023-05-22T02:06:10.331Z,99230.41
2023-05-22T02:08:38.962Z,99226.66
2023-05-22T02:11:06.737Z,99218.19
2023-05-22T02:13:33.798Z,99220.56
2023-05-22T02:16:03.085Z,99223.19
2023-05-22T02:18:31.145Z,99224.78
2023-05-22T02:20:58.360Z,99214.78
2023-05-22T02:23:25.369Z,99224.13
2023-05-22T02:25:52.147Z,99220.31
2023-05-22T02:28:18.831Z,99222.09
2023-05-22T02:30:46.526Z,99221.34
2023-05-22T02:33:18.256Z,99217.75
2023-05-22T02:35:45.709Z,99226.97
2023-05-22T02:38:12.830Z,99219.16
2023-05-22T02:40:40.287Z,99220.19
2023-05-22T02:43:07.282Z,99220.16
2023-05-22T02:45:34.088Z,99219.78
2023-05-22T02:48:03.549Z,99218.75
2023-05-22T02:50:31.997Z,99223.72
2023-05-22T02:52:58.646Z,99220.34
2023-05-22T02:55:25.687Z,99220.13
2023-05-22T02:57:52.358Z,99207.41
2023-05-22T03:00:19.632Z,99214.09
2023-05-22T03:02:46.350Z,99211.16
2023-05-22T03:05:17.502Z,99213.81
2023-05-22T03:07:47.401Z,99222.72
2023-05-22T03:10:15.336Z,99221.56
2023-05-22T03:12:42.053Z,99217.97
2023-05-22T03:15:09.663Z,99228.00
2023-05-22T03:17:37.278Z,99218.38
2023-05-22T03:20:05.341Z,99221.97
2023-05-22T03:22:32.126Z,99234.47
2023-05-22T03:24:58.818Z,99230.13
2023-05-22T03:27:25.483Z,99230.63
2023-05-22T03:29:52.634Z,99238.28
2023-05-22T03:32:19.714Z,99234.31
2023-05-22T03:34:46.598Z,99233.00
2023-05-22T03:37:13.190Z,99234.22
2023-05-22T03:39:40.072Z,99226.34
2023-05-22T03:42:17.441Z,99225.09
2023-05-22T03:44:44.859Z,99217.81
2023-05-22T03:47:11.896Z,99223.06
2023-05-22T03:49:38.577Z,99230.53
2023-05-22T03:52:05.374Z,99232.19
2023-05-22T03:54:31.976Z,99233.25
2023-05-22T03:56:58.624Z,99228.03
2023-05-22T03:59:25.734Z,99229.16
2023-05-22T04:01:52.389Z,99238.22
2023-05-22T04:04:19.005Z,99222.31
2023-05-22T04:06:45.814Z,99239.84
2023-05-22T04:09:12.987Z,99238.72
2023-05-22T04:11:39.794Z,99225.66
2023-05-22T04:14:06.824Z,99233.06
2023-05-22T04:16:33.930Z,99235.56
2023-05-22T04:19:04.212Z,99229.31
2023-05-22T04:21:34.354Z,99238.47
2023-05-22T04:24:07.357Z,99230.28
2023-05-22T04:26:34.432Z,99223.09
2023-05-22T04:29:01.275Z,99218.22
2023-05-22T04:31:28.731Z,99224.81
2023-05-22T04:33:56.141Z,99224.16
2023-05-22T04:36:25.998Z,99227.75
2023-05-22T04:38:53.213Z,99231.44
2023-05-22T04:41:22.678Z,99233.94
2023-05-22T04:43:52.935Z,99238.34
2023-05-22T04:46:19.779Z,99243.81
2023-05-22T04:48:47.218Z,99238.44
2023-05-22T04:51:15.920Z,99240.94
2023-05-22T04:53:42.768Z,99231.50
2023-05-22T04:56:09.752Z,99235.59
2023-05-22T04:58:38.204Z,99224.81
2023-05-22T05:01:05.934Z,99219.44
2023-05-22T05:03:32.721Z,99214.28
2023-05-22T05:06:00.488Z,99205.63
2023-05-22T05:08:27.250Z,99219.16
2023-05-22T05:10:53.882Z,99220.25
2023-05-22T05:13:20.662Z,99215.09
2023-05-22T05:15:47.750Z,99228.06
2023-05-22T05:18:14.491Z,99239.16
2023-05-22T05:20:42.145Z,99242.66
2023-05-22T05:23:10.329Z,99241.84
2023-05-22T05:25:38.743Z,99250.16
2023-05-22T05:28:11.638Z,99251.94
2023-05-22T05:30:40.614Z,99240.78
2023-05-22T05:33:13.085Z,99248.25
2023-05-22T05:35:58.064Z,99247.88
2023-05-22T05:38:25.287Z,99245.03
2023-05-22T05:40:52.726Z,99242.75
2023-05-22T05:43:20.741Z,99253.31
2023-05-22T05:45:49.041Z,99240.13
2023-05-22T05:48:16.678Z,99235.88
2023-05-22T05:50:45.605Z,99238.25
2023-05-22T05:53:12.613Z,99230.28
2023-05-22T05:55:42.851Z,99230.69
2023-05-22T05:58:09.494Z,99234.97
2023-05-22T06:00:42.520Z,99228.88
2023-05-22T06:03:10.456Z,99237.00
2023-05-22T06:05:49.895Z,99228.72
2023-05-22T06:08:25.638Z,99226.69
2023-05-22T06:10:52.749Z,99227.56
2023-05-22T06:13:35.504Z,99238.44
2023-05-22T06:16:04.817Z,99234.91
2023-05-22T06:18:34.329Z,99226.41
2023-05-22T06:21:01.076Z,99232.63
2023-05-22T06:23:27.924Z,99221.28
2023-05-22T06:25:55.657Z,99232.44
2023-05-22T06:28:23.312Z,99230.59
2023-05-22T06:30:50.189Z,99228.75
2023-05-22T06:33:19.325Z,99220.63
2023-05-22T06:35:46.117Z,99222.84
2023-05-22T06:38:12.916Z,99212.34
2023-05-22T06:40:41.895Z,99221.34
2023-05-22T06:43:14.065Z,99221.19
2023-05-22T06:45:51.605Z,99227.63
2023-05-22T06:48:24.105Z,99224.75
2023-05-22T06:50:59.231Z,99226.94
2023-05-22T06:53:26.499Z,99233.72
2023-05-22T06:55:53.132Z,99232.19
2023-05-22T06:58:30.095Z,99233.78
2023-05-22T07:00:56.817Z,99236.50
2023-05-22T07:03:31.269Z,99236.19
2023-05-22T07:06:18.526Z,99232.09
2023-05-22T07:08:45.778Z,99224.09
2023-05-22T07:11:12.374Z,99216.13
2023-05-22T07:13:39.592Z,99219.31
2023-05-22T07:16:06.471Z,99213.91
2023-05-22T07:18:34.518Z,99207.22
2023-05-22T07:21:01.579Z,99206.78
2023-05-22T07:23:28.638Z,99208.38
2023-05-22T07:25:55.432Z,99207.16
2023-05-22T07:28:25.555Z,99212.41
2023-05-22T07:31:00.407Z,99216.28
2023-05-22T07:33:27.268Z,99215.88
2023-05-22T07:35:55.613Z,99216.88
2023-05-22T07:38:22.402Z,99217.88
2023-05-22T07:40:56.819Z,99214.38
2023-05-22T07:43:24.414Z,99216.16
2023-05-22T07:45:51.656Z,99213.94
2023-05-22T07:48:22.251Z,99212.47
2023-05-22T07:50:49.216Z,99208.47
2023-05-22T07:53:16.493Z,99201.22
2023-05-22T07:55:44.792Z,99205.88
2023-05-22T07:58:11.458Z,99207.16
2023-05-22T08:00:41.832Z,99212.19
2023-05-22T08:03:08.778Z,99209.72
2023-05-22T08:05:35.580Z,99207.78
2023-05-22T08:08:03.025Z,99204.53
2023-05-22T08:10:37.292Z,99208.06
2023-05-22T08:13:13.712Z,99201.31
2023-05-22T08:15:40.421Z,99200.78
2023-05-22T08:18:07.126Z,99206.91
2023-05-22T08:20:34.190Z,99195.94
2023-05-22T08:23:01.058Z,99199.34
2023-05-22T08:25:27.736Z,99189.63
2023-05-22T08:27:54.356Z,99191.38
2023-05-22T08:30:20.995Z,99185.03
2023-05-22T08:32:47.667Z,99183.06
2023-05-22T08:35:14.549Z,99179.75
2023-05-22T08:37:41.321Z,99177.69
2023-05-22T08:40:12.594Z,99179.44
2023-05-22T08:42:39.346Z,99180.13
2023-05-22T08:45:07.112Z,99174.41
2023-05-22T08:47:37.541Z,99174.03
2023-05-22T08:50:04.710Z,99174.97
2023-05-22T08:52:38.821Z,99175.38
2023-05-22T08:55:06.716Z,99175.91
2023-05-22T08:57:34.174Z,99179.66
2023-05-22T09:00:01.084Z,99177.19
2023-05-22T09:02:28.490Z,99177.31
2023-05-22T09:04:55.306Z,99167.53
2023-05-22T09:07:22.166Z,99163.16
2023-05-22T09:09:49.588Z,99166.41
2023-05-22T09:12:16.900Z,99166.66
2023-05-22T09:14:44.255Z,99158.63
2023-05-22T09:17:15.221Z,99162.88
2023-05-22T09:19:48.165Z,99162.88
2023-05-22T09:22:14.965Z,99161.66
2023-05-22T09:24:42.477Z,99166.34
2023-05-22T09:27:11.100Z,99166.75
2023-05-22T09:29:49.356Z,99168.09
2023-05-22T09:32:17.253Z,99166.53
2023-05-22T09:34:45.200Z,99164.91
2023-05-22T09:37:14.448Z,99158.19
2023-05-22T09:39:43.762Z,99162.66
2023-05-22T09:42:12.719Z,99157.28
2023-05-22T09:44:39.493Z,99156.84
2023-05-22T09:47:06.757Z,99158.66
2023-05-22T09:49:41.137Z,99150.44
2023-05-22T09:52:08.841Z,99157.97
2023-05-22T09:54:36.068Z,99152.59
2023-05-22T09:57:04.819Z,99155.00
2023-05-22T09:59:33.309Z,99149.34
2023-05-22T10:02:02.209Z,99144.84
2023-05-22T10:04:30.613Z,99145.31
2023-05-22T10:06:57.818Z,99148.03
2023-05-22T10:09:26.474Z,99152.72
2023-05-22T10:11:54.022Z,99149.59
2023-05-22T10:14:20.761Z,99132.72
2023-05-22T10:16:47.702Z,99131.19
2023-05-22T10:19:14.529Z,99130.94
2023-05-22T10:21:41.749Z,99122.25
2023-05-22T10:24:08.760Z,99125.53
2023-05-22T10:26:35.492Z,99119.16
2023-05-22T10:29:11.254Z,99116.78
2023-05-22T10:32:24.283Z,99121.44
2023-05-22T10:35:08.285Z,99111.41
2023-05-22T10:38:02.686Z,99103.84
2023-05-22T10:40:33.644Z,99101.22
2023-05-22T10:43:01.767Z,99095.50
2023-05-22T10:45:29.220Z,99098.78
2023-05-22T10:48:23.263Z,99099.56
2023-05-22T10:50:53.672Z,99099.91
2023-05-22T10:53:32.306Z,99088.44
2023-05-22T10:56:02.602Z,99090.88
2023-05-22T10:58:31.195Z,99091.94
2023-05-22T11:01:15.362Z,99080.47
2023-05-22T11:03:55.198Z,99081.16
2023-05-22T11:06:45.733Z,99072.13
2023-05-22T11:09:29.287Z,99063.13
2023-05-22T11:12:17.821Z,99068.91
2023-05-22T11:14:56.312Z,99068.91
2023-05-22T11:17:30.817Z,99071.66
2023-05-22T11:20:28.928Z,99064.41
2023-05-22T11:23:00.311Z,99052.81
2023-05-22T11:25:27.828Z,99056.25
2023-05-22T11:27:55.223Z,99056.13
2023-05-22T11:30:25.830Z,99057.53
2023-05-22T11:32:52.742Z,99053.38
2023-05-22T11:35:21.219Z,99050.00
2023-05-22T11:37:49.124Z,99052.88
2023-05-22T11:40:17.335Z,99051.19
2023-05-22T11:42:44.061Z,99045.22
2023-05-22T11:45:11.811Z,99052.94
2023-05-22T11:47:38.670Z,99050.75
2023-05-22T11:50:06.852Z,99056.22
2023-05-22T11:52:35.155Z,99056.38
2023-05-22T11:55:02.204Z,99043.50
2023-05-22T11:57:28.955Z,99044.28
2023-05-22T11:59:56.082Z,99040.56
2023-05-22T12:02:22.747Z,99039.22
2023-05-22T12:04:54.658Z,99031.63
2023-05-22T12:07:22.473Z,99036.13
2023-05-22T12:09:49.328Z,99031.53
2023-05-22T12:12:16.414Z,99026.03
2023-05-22T12:14:46.793Z,99033.44
2023-05-22T12:17:14.193Z,99025.25
2023-05-22T12:19:41.504Z,99025.81
2023-05-22T12:22:11.731Z,99030.91
2023-05-22T12:24:39.491Z,99015.97
2023-05-22T12:27:08.468Z,99013.56
2023-05-22T12:29:35.178Z,99013.28
2023-05-22T12:32:07.341Z,99012.66
2023-05-22T12:34:34.987Z,99012.53
2023-05-22T12:37:01.904Z,99011.25
2023-05-22T12:39:29.760Z,99007.59
2023-05-22T12:41:56.964Z,99002.88
2023-05-22T12:44:23.737Z,99006.13
2023-05-22T12:46:50.430Z,98999.03
2023-05-22T12:49:17.182Z,98997.88
2023-05-22T12:51:44.034Z,98997.41
2023-05-22T12:54:10.740Z,99000.94
2023-05-22T12:56:37.448Z,98995.97
2023-05-22T12:59:04.179Z,99008.72
2023-05-22T13:01:30.913Z,99009.38
2023-05-22T13:03:57.621Z,99007.47
2023-05-22T13:06:24.288Z,99011.09
2023-05-22T13:08:51.150Z,99002.16
2023-05-22T13:11:20.049Z,99002.03
2023-05-22T13:13:46.699Z,98995.06
2023-05-22T13:16:13.427Z,98996.34
2023-05-22T13:18:40.063Z,98991.88
2023-05-22T13:21:06.729Z,98998.78
2023-05-22T13:23:33.373Z,98995.97
2023-05-22T13:26:02.042Z,98998.25
2023-05-22T13:28:29.149Z,98997.47
2023-05-22T13:30:56.517Z,98992.69
2023-05-22T13:33:23.249Z,98994.25
2023-05-22T13:35:49.910Z,98985.31
2023-05-22T13:38:16.625Z,98990.94
2023-05-22T13:40:43.254Z,98996.16
2023-05-22T13:43:09.941Z,98993.25
2023-05-22T13:45:36.582Z,98988.88
2023-05-22T13:48:03.348Z,98979.31
2023-05-22T13:50:30.011Z,98975.03
2023-05-22T13:52:56.656Z,98975.22
2023-05-22T13:55:23.331Z,98981.06
2023-05-22T13:57:49.926Z,98980.00
2023-05-22T14:00:17.042Z,98975.22
2023-05-22T14:02:44.537Z,98978.19
2023-05-22T14:05:11.314Z,98976.25
2023-05-22T14:07:37.979Z,98980.06
2023-05-22T14:10:04.963Z,98983.69
2023-05-22T14:12:31.599Z,98982.56
2023-05-22T14:14:58.306Z,98976.72
2023-05-22T14:17:25.063Z,98974.91
2023-05-22T14:19:51.727Z,98975.16
2023-05-22T14:22:18.448Z,98964.59
2023-05-22T14:24:45.065Z,98961.41
2023-05-22T14:27:11.726Z,98956.84
2023-05-22T14:29:38.397Z,98963.88
2023-05-22T14:32:05.420Z,98959.94
2023-05-22T14:34:32.203Z,98955.00
2023-05-22T14:36:58.889Z,98948.81
2023-05-22T14:39:25.828Z,98955.09
2023-05-22T14:41:55.562Z,98958.91
2023-05-22T14:44:25.123Z,98960.84
2023-05-22T14:46:53.416Z,98961.91
2023-05-22T14:49:20.052Z,98964.22
2023-05-22T14:51:48.267Z,98960.50
2023-05-22T14:54:19.163Z,98957.88
2023-05-22T14:56:46.318Z,98958.78
2023-05-22T14:59:14.168Z,98964.03
2023-05-22T15:01:41.100Z,98956.91
2023-05-22T15:04:09.015Z,98966.50
2023-05-22T15:06:36.315Z,98958.44
2023-05-22T15:09:03.314Z,98954.81
2023-05-22T15:11:30.072Z,98949.41
2023-05-22T15:13:56.743Z,98943.91
2023-05-22T15:16:23.652Z,98944.59
2023-05-22T15:18:50.540Z,98935.44
2023-05-22T15:21:17.360Z,98940.75
2023-05-22T15:23:44.175Z,98934.72
2023-05-22T15:26:10.964Z,98928.16
2023-05-22T15:28:37.611Z,98934.75
2023-05-22T15:31:04.263Z,98927.50
2023-05-22T15:33:31.105Z,98926.56
2023-05-22T15:35:57.775Z,98918.84
2023-05-22T15:38:24.419Z,98919.88
2023-05-22T15:40:51.063Z,98910.91
2023-05-22T15:43:17.698Z,98906.88
2023-05-22T15:45:47.445Z,98911.50
2023-05-22T15:48:14.431Z,98902.19
2023-05-22T15:50:41.067Z,98908.25
2023-05-22T15:53:07.744Z,98910.91
2023-05-22T15:55:34.446Z,98905.53
2023-05-22T15:58:02.626Z,98899.47
2023-05-22T16:00:29.332Z,98899.34
2023-05-22T16:02:56.087Z,98902.34
2023-05-22T16:05:22.839Z,98905.84
2023-05-22T16:07:49.506Z,98908.66
2023-05-22T16:10:16.180Z,98905.50
2023-05-22T16:12:42.799Z,98905.75
2023-05-22T16:15:09.902Z,98906.38
2023-05-22T16:17:37.882Z,98909.75
2023-05-22T16:20:05.330Z,98905.59
2023-05-22T16:22:44.327Z,98903.94
2023-05-22T16:25:16.801Z,98899.94
2023-05-22T16:27:43.607Z,98907.13
2023-05-22T16:30:11.434Z,98909.78
2023-05-22T16:32:38.373Z,98912.50
2023-05-22T16:35:05.547Z,98912.38
2023-05-22T16:37:33.190Z,98915.50
2023-05-22T16:40:00.054Z,98912.06
2023-05-22T16:42:27.237Z,98910.31
2023-05-22T16:44:53.907Z,98917.44
2023-05-22T16:47:21.409Z,98915.84
2023-05-22T16:49:48.069Z,98913.66
2023-05-22T16:52:14.720Z,98917.59
2023-05-22T16:54:41.381Z,98919.91
2023-05-22T16:57:08.051Z,98921.28
2023-05-22T16:59:34.771Z,98928.78
2023-05-22T17:02:01.436Z,98920.06
2023-05-22T17:04:28.126Z,98918.31
2023-05-22T17:06:55.764Z,98921.25
2023-05-22T17:09:22.421Z,98917.88
2023-05-22T17:11:49.095Z,98922.94
2023-05-22T17:14:15.796Z,98922.56
2023-05-22T17:16:42.529Z,98931.78
2023-05-22T17:19:09.888Z,98929.84
2023-05-22T17:21:37.957Z,98923.09
2023-05-22T17:24:04.951Z,98923.31
2023-05-22T17:26:33.519Z,98928.66
2023-05-22T17:29:00.228Z,98918.59
2023-05-22T17:31:27.173Z,98922.03
2023-05-22T17:33:53.909Z,98928.06
2023-05-22T17:36:20.537Z,98921.75
2023-05-22T17:38:47.152Z,98926.38
2023-05-22T17:41:13.788Z,98921.22
2023-05-22T17:43:40.839Z,98920.03
2023-05-22T17:46:07.496Z,98919.13
2023-05-22T17:48:34.432Z,98924.38
2023-05-22T17:51:02.118Z,98933.50
2023-05-22T17:53:34.002Z,98924.09
2023-05-22T17:56:01.217Z,98929.31
2023-05-22T17:58:27.988Z,98930.19
2023-05-22T18:00:54.717Z,98925.50
2023-05-22T18:03:21.466Z,98934.47
2023-05-22T18:05:49.383Z,98932.69
2023-05-22T18:08:16.682Z,98938.94
2023-05-22T18:10:43.592Z,98938.72
2023-05-22T18:13:10.939Z,98930.50
2023-05-22T18:15:37.617Z,98928.19
2023-05-22T18:18:04.664Z,98920.63
2023-05-22T18:20:33.048Z,98924.28
2023-05-22T18:23:00.001Z,98917.41
2023-05-22T18:25:26.689Z,98916.53
2023-05-22T18:27:53.371Z,98921.66
2023-05-22T18:30:20.021Z,98917.38
2023-05-22T18:32:46.845Z,98919.94
2023-05-22T18:35:13.570Z,98916.41
2023-05-22T18:37:40.247Z,98925.28
2023-05-22T18:40:09.275Z,98923.94
2023-05-22T18:42:36.035Z,98921.38
2023-05-22T18:45:02.796Z,98925.34
2023-05-22T18:47:29.566Z,98925.94
2023-05-22T18:49:56.212Z,98923.84
2023-05-22T18:52:22.864Z,98922.22
2023-05-22T18:54:49.497Z,98932.41
2023-05-22T18:57:16.236Z,98932.69
2023-05-22T18:59:43.536Z,98937.78
2023-05-22T19:02:10.710Z,98928.75
2023-05-22T19:04:37.390Z,98931.91
2023-05-22T19:07:04.227Z,98933.00
2023-05-22T19:09:30.891Z,98936.31
2023-05-22T19:11:57.509Z,98935.13
2023-05-22T19:14:24.162Z,98930.50
2023-05-22T19:16:50.893Z,98936.41
2023-05-22T19:19:17.616Z,98938.56
2023-05-22T19:21:44.342Z,98942.16
2023-05-22T19:24:10.966Z,98945.00
2023-05-22T19:26:37.598Z,98953.75
2023-05-22T19:29:04.221Z,98951.28
2023-05-22T19:31:31.068Z,98951.19
2023-05-22T19:33:57.752Z,98956.25
2023-05-22T19:36:24.374Z,98957.47
2023-05-22T19:38:53.260Z,98950.47
2023-05-22T19:41:20.608Z,98952.81
2023-05-22T19:43:47.229Z,98957.88
2023-05-22T19:46:13.960Z,98950.72
2023-05-22T19:48:40.621Z,98958.75
2023-05-22T19:51:08.719Z,98963.72
2023-05-22T19:53:35.313Z,98955.94
2023-05-22T19:56:02.663Z,98955.94
2023-05-22T19:58:29.320Z,98954.72
2023-05-22T20:00:55.963Z,98952.69
2023-05-22T20:03:23.259Z,98957.41
2023-05-22T20:05:52.700Z,98949.13
2023-05-22T20:08:21.650Z,98940.22
2023-05-22T20:10:48.719Z,98953.03
2023-05-22T20:13:15.446Z,98946.94
2023-05-22T20:15:42.323Z,98942.19
2023-05-22T20:18:11.006Z,98946.63
2023-05-22T20:20:37.973Z,98945.97
2023-05-22T20:23:04.611Z,98949.38
2023-05-22T20:25:31.349Z,98948.41
2023-05-22T20:27:57.977Z,98940.13
2023-05-22T20:30:24.644Z,98942.41
2023-05-22T20:32:51.919Z,98948.44
2023-05-22T20:35:20.078Z,98954.25
2023-05-22T20:37:47.400Z,98956.75
2023-05-22T20:40:15.092Z,98956.00
2023-05-22T20:42:44.821Z,98960.69
2023-05-22T20:45:14.417Z,98957.75
2023-05-22T20:47:42.023Z,98964.53
2023-05-22T20:50:09.137Z,98957.03
2023-05-22T20:52:37.111Z,98963.31
2023-05-22T20:55:04.404Z,98967.38
2023-05-22T20:57:31.053Z,98970.16
2023-05-22T20:59:58.329Z,98964.50
2023-05-22T21:02:25.814Z,98962.56
2023-05-22T21:04:53.665Z,98971.25
2023-05-22T21:07:20.319Z,98973.44
2023-05-22T21:09:46.993Z,98967.50
2023-05-22T21:12:13.656Z,98966.47
2023-05-22T21:14:40.351Z,98963.81
2023-05-22T21:17:07.228Z,98960.06
2023-05-22T21:19:34.070Z,98960.88
2023-05-22T21:22:00.796Z,98970.13
2023-05-22T21:24:27.452Z,98962.31
2023-05-22T21:26:54.086Z,98967.44
2023-05-22T21:29:20.763Z,98965.38
2023-05-22T21:31:47.439Z,98963.22
2023-05-22T21:34:14.282Z,98970.66
2023-05-22T21:36:41.270Z,98970.69
2023-05-22T21:39:07.954Z,98969.69
2023-05-22T21:41:34.733Z,98968.06
2023-05-22T21:44:01.422Z,98965.16
2023-05-22T21:46:28.066Z,98966.75
2023-05-22T21:48:54.722Z,98964.63
2023-05-22T21:51:21.366Z,98970.16
2023-05-22T21:53:48.064Z,98966.16
2023-05-22T21:56:14.714Z,98962.13
2023-05-22T21:58:41.309Z,98958.16
2023-05-22T22:01:08.010Z,98963.97
2023-05-22T22:03:34.802Z,98966.75
2023-05-22T22:06:02.838Z,98968.66
2023-05-22T22:08:29.512Z,98962.50
2023-05-22T22:10:56.306Z,98958.50
2023-05-22T22:13:22.902Z,98965.81
2023-05-22T22:15:49.667Z,98957.50
2023-05-22T22:18:16.445Z,98952.66
2023-05-22T22:20:45.302Z,98952.41
2023-05-22T22:23:12.731Z,98945.66
2023-05-22T22:25:39.572Z,98950.56
2023-05-22T22:28:07.388Z,98948.44
2023-05-22T22:30:35.153Z,98943.91
2023-05-22T22:33:02.115Z,98949.09
2023-05-22T22:35:28.890Z,98946.38
2023-05-22T22:37:55.645Z,98944.47
2023-05-22T22:40:23.395Z,98945.88
2023-05-22T22:42:51.610Z,98935.56
2023-05-22T22:45:18.251Z,98942.06
2023-05-22T22:47:45.899Z,98948.84
2023-05-22T22:50:12.690Z,98937.50
2023-05-22T22:52:45.306Z,98934.28
2023-05-22T22:55:12.358Z,98936.97
2023-05-22T22:57:39.182Z,98936.13
2023-05-22T23:00:06.596Z,98920.97
2023-05-22T23:02:33.302Z,98926.34
2023-05-22T23:05:00.302Z,98914.44
2023-05-22T23:07:28.166Z,98919.59
2023-05-22T23:09:54.903Z,98929.34
2023-05-22T23:12:21.511Z,98929.09
2023-05-22T23:14:50.417Z,98919.13
2023-05-22T23:17:17.072Z,98922.66
2023-05-22T23:19:44.010Z,98929.44
2023-05-22T23:22:10.930Z,98912.94
2023-05-22T23:24:37.528Z,98918.63
2023-05-22T23:27:04.282Z,98921.06
2023-05-22T23:29:31.000Z,98910.81
2023-05-22T23:31:57.730Z,98911.06
2023-05-22T23:34:24.589Z,98911.06
2023-05-22T23:36:51.632Z,98908.66
2023-05-22T23:39:18.273Z,98903.78
2023-05-22T23:41:45.492Z,98908.13
2023-05-22T23:44:12.332Z,98905.72
2023-05-22T23:46:39.795Z,98904.09
2023-05-22T23:49:07.422Z,98903.91
2023-05-22T23:51:34.194Z,98906.09
2023-05-22T23:54:01.124Z,98896.09
2023-05-22T23:56:27.963Z,98905.03
2023-05-22T23:58:54.606Z,98899.09
